Hillsboro, New Mexico
Current Conditions -  °F | °C
As of 1:53 AM on Friday 28 Nov 2014 (Local Time) from KTCS Reporting Station
Clear Clear  
Wind Chill: 35°   Ceiling: Unl
Heat Index: 41°   Visibility: 10mi
Dew Point: 20°   Wind: 10mph
Humidity: 43%   Direction: 290°WNW
Pressure: 30.29"   Gusts: NA
Location:  32.92°N, 107.57°W
Report Text: KTCS 280853Z AUTO 29009KT 10SM CLR 05/M07 A3029 RMK AO2 SLP215 T00501067 56010 TSNO
Loading
Personal Weather Stations






























Interactive Weather Map New forecast layout! Learn more

10-Day Weather Forecast

Advertisements
Track Severe Weather on mobile